createdAt,value
2022-09-14T00:00:44.805Z,81.78
2022-09-14T00:03:11.586Z,81.77
2022-09-14T00:05:38.264Z,81.87
2022-09-14T00:08:04.853Z,81.64
2022-09-14T00:10:31.321Z,82.15
2022-09-14T00:12:58.163Z,82.01
2022-09-14T00:15:24.576Z,82.46
2022-09-14T00:17:50.930Z,82.44
2022-09-14T00:20:17.399Z,82.48
2022-09-14T00:22:43.981Z,81.93
2022-09-14T00:25:10.370Z,83.07
2022-09-14T00:27:36.859Z,82.88
2022-09-14T00:30:03.859Z,83.18
2022-09-14T00:32:30.275Z,83.57
2022-09-14T00:34:56.985Z,84.08
2022-09-14T00:37:23.349Z,84.55
2022-09-14T00:39:50.353Z,84.40
2022-09-14T00:42:19.503Z,84.38
2022-09-14T00:44:45.786Z,84.86
2022-09-14T00:47:14.978Z,85.16
2022-09-14T00:49:43.309Z,85.13
2022-09-14T00:52:16.092Z,85.73
2022-09-14T00:54:48.516Z,85.05
2022-09-14T00:57:17.174Z,85.22
2022-09-14T00:59:44.883Z,85.47
2022-09-14T01:02:14.903Z,85.26
2022-09-14T01:04:43.274Z,85.16
2022-09-14T01:07:33.528Z,85.54
2022-09-14T01:10:21.876Z,85.59
2022-09-14T01:13:06.260Z,85.62
2022-09-14T01:15:59.639Z,86.00
2022-09-14T01:18:36.210Z,85.64
2022-09-14T01:21:12.316Z,85.89
2022-09-14T01:24:14.689Z,85.86
2022-09-14T01:26:56.195Z,85.91
2022-09-14T01:29:44.287Z,86.69
2022-09-14T01:32:28.939Z,86.71
2022-09-14T01:35:14.125Z,87.15
2022-09-14T01:37:57.353Z,86.93
2022-09-14T01:40:37.303Z,88.55
2022-09-14T01:43:06.538Z,88.18
2022-09-14T01:45:34.770Z,88.54
2022-09-14T01:48:04.623Z,88.69
2022-09-14T01:50:41.554Z,89.20
2022-09-14T01:53:19.196Z,89.25
2022-09-14T01:56:10.883Z,89.29
2022-09-14T01:58:47.024Z,88.60
2022-09-14T02:01:20.226Z,88.73
2022-09-14T02:03:53.256Z,88.48
2022-09-14T02:06:44.123Z,88.95
2022-09-14T02:09:16.539Z,88.53
2022-09-14T02:11:43.114Z,88.22
2022-09-14T02:14:09.891Z,88.49
2022-09-14T02:16:36.588Z,88.64
2022-09-14T02:19:03.428Z,88.41
2022-09-14T02:21:31.837Z,88.46
2022-09-14T02:23:59.278Z,88.85
2022-09-14T02:26:26.270Z,88.87
2022-09-14T02:28:56.098Z,88.79
2022-09-14T02:31:25.515Z,88.73
2022-09-14T02:34:32.329Z,89.43
2022-09-14T02:37:16.916Z,89.31
2022-09-14T02:40:01.692Z,88.23
2022-09-14T02:42:38.791Z,89.52
2022-09-14T02:45:26.532Z,89.47
2022-09-14T02:48:21.310Z,89.46
2022-09-14T02:51:07.775Z,89.24
2022-09-14T02:53:45.956Z,89.42
2022-09-14T02:56:13.951Z,89.23
2022-09-14T02:58:44.055Z,89.78
2022-09-14T03:01:14.195Z,90.12
2022-09-14T03:03:40.642Z,90.49
2022-09-14T03:06:07.078Z,90.61
2022-09-14T03:08:33.688Z,90.27
2022-09-14T03:11:00.013Z,90.60
2022-09-14T03:13:26.387Z,90.81
2022-09-14T03:15:53.519Z,90.66
2022-09-14T03:18:20.425Z,90.18
2022-09-14T03:20:46.916Z,90.26
2022-09-14T03:23:14.147Z,90.22
2022-09-14T03:25:46.921Z,90.33
2022-09-14T03:28:13.301Z,89.87
2022-09-14T03:30:39.955Z,89.36
2022-09-14T03:33:06.673Z,89.38
2022-09-14T03:35:33.474Z,89.15
2022-09-14T03:38:00.326Z,89.06
2022-09-14T03:40:27.523Z,88.70
2022-09-14T03:43:04.591Z,89.02
2022-09-14T03:45:30.983Z,88.11
2022-09-14T03:47:57.412Z,87.86
2022-09-14T03:50:23.838Z,87.52
2022-09-14T03:52:50.596Z,87.83
2022-09-14T03:55:17.045Z,88.10
2022-09-14T03:57:43.418Z,88.76
2022-09-14T04:00:11.355Z,88.91
2022-09-14T04:02:38.348Z,89.01
2022-09-14T04:05:05.240Z,89.99
2022-09-14T04:07:31.670Z,90.05
2022-09-14T04:09:58.388Z,90.27
2022-09-14T04:12:24.927Z,90.56
2022-09-14T04:14:51.384Z,91.01
2022-09-14T04:17:17.797Z,91.17
2022-09-14T04:19:44.404Z,91.27
2022-09-14T04:22:10.777Z,91.02
2022-09-14T04:24:37.252Z,91.13
2022-09-14T04:27:03.718Z,91.18
2022-09-14T04:29:30.581Z,91.18
2022-09-14T04:31:57.523Z,91.65
2022-09-14T04:34:26.374Z,91.73
2022-09-14T04:36:52.915Z,91.52
2022-09-14T04:39:19.569Z,91.43
2022-09-14T04:41:45.992Z,91.25
2022-09-14T04:44:12.556Z,91.31
2022-09-14T04:46:46.607Z,91.05
2022-09-14T04:49:15.668Z,90.85
2022-09-14T04:51:42.178Z,90.45
2022-09-14T04:54:12.556Z,90.03
2022-09-14T04:56:38.932Z,89.50
2022-09-14T04:59:05.887Z,89.07
2022-09-14T05:01:37.886Z,89.47
2022-09-14T05:04:05.808Z,88.39
2022-09-14T05:06:34.007Z,88.01
2022-09-14T05:09:02.028Z,87.58
2022-09-14T05:11:34.764Z,87.14
2022-09-14T05:14:01.904Z,86.55
2022-09-14T05:16:31.663Z,86.27
2022-09-14T05:19:03.786Z,85.81
2022-09-14T05:21:32.059Z,85.56
2022-09-14T05:24:00.801Z,85.05
2022-09-14T05:26:29.394Z,84.98
2022-09-14T05:28:58.995Z,84.50
2022-09-14T05:31:26.680Z,84.00
2022-09-14T05:33:53.840Z,83.88
2022-09-14T05:36:20.705Z,83.46
2022-09-14T05:38:47.132Z,83.17
2022-09-14T05:41:14.965Z,82.87
2022-09-14T05:43:42.274Z,82.67
2022-09-14T05:46:12.671Z,82.75
2022-09-14T05:48:40.001Z,82.18
2022-09-14T05:51:10.160Z,82.25
2022-09-14T05:53:36.575Z,81.64
2022-09-14T05:56:11.784Z,82.24
2022-09-14T05:58:39.294Z,81.35
2022-09-14T06:01:19.017Z,81.81
2022-09-14T06:03:46.713Z,80.95
2022-09-14T06:06:15.823Z,80.88
2022-09-14T06:08:42.504Z,80.70
2022-09-14T06:11:11.730Z,80.58
2022-09-14T06:13:38.580Z,80.25
2022-09-14T06:16:07.482Z,80.19
2022-09-14T06:18:35.363Z,80.23
2022-09-14T06:21:03.073Z,79.68
2022-09-14T06:23:30.858Z,79.39
2022-09-14T06:25:59.321Z,78.81
2022-09-14T06:28:26.791Z,78.15
2022-09-14T06:30:53.323Z,77.71
2022-09-14T06:33:20.330Z,77.57
2022-09-14T06:35:57.537Z,78.20
2022-09-14T06:38:25.053Z,76.89
2022-09-14T06:40:59.600Z,77.18
2022-09-14T06:43:28.093Z,76.48
2022-09-14T06:46:06.183Z,76.85
2022-09-14T06:48:36.031Z,75.91
2022-09-14T06:51:24.907Z,76.01
2022-09-14T06:53:52.118Z,75.14
2022-09-14T06:56:18.915Z,75.11
2022-09-14T06:58:45.453Z,74.89
2022-09-14T07:01:14.984Z,75.11
2022-09-14T07:03:44.032Z,74.97
2022-09-14T07:06:16.657Z,74.72
2022-09-14T07:08:44.214Z,74.50
2022-09-14T07:11:13.134Z,74.32
2022-09-14T07:13:39.873Z,74.18
2022-09-14T07:16:06.845Z,74.41
2022-09-14T07:18:34.226Z,74.77
2022-09-14T07:21:12.559Z,74.68
2022-09-14T07:23:41.594Z,74.17
2022-09-14T07:26:11.457Z,74.02
2022-09-14T07:28:38.417Z,73.23
2022-09-14T07:31:14.020Z,73.20
2022-09-14T07:33:40.420Z,73.16
2022-09-14T07:36:08.299Z,72.38
2022-09-14T07:38:51.682Z,71.82
2022-09-14T07:41:24.163Z,71.24
2022-09-14T07:43:52.247Z,70.47
2022-09-14T07:46:20.462Z,69.36
2022-09-14T07:48:47.725Z,68.64
2022-09-14T07:51:16.511Z,68.98
2022-09-14T07:53:43.473Z,68.85
2022-09-14T07:56:13.469Z,68.70
2022-09-14T07:58:40.174Z,68.07
2022-09-14T08:01:09.360Z,66.61
2022-09-14T08:03:43.377Z,66.66
2022-09-14T08:06:15.791Z,66.63
2022-09-14T08:08:44.357Z,65.59
2022-09-14T08:11:31.525Z,65.30
2022-09-14T08:14:04.635Z,64.89
2022-09-14T08:16:32.810Z,62.14
2022-09-14T08:19:02.110Z,61.30
2022-09-14T08:21:30.329Z,60.95
2022-09-14T08:23:58.189Z,59.35
2022-09-14T08:26:27.347Z,59.00
2022-09-14T08:28:55.460Z,59.24
2022-09-14T08:31:27.251Z,57.75
2022-09-14T08:34:00.105Z,58.63
2022-09-14T08:36:29.781Z,57.67
2022-09-14T08:38:56.196Z,57.52
2022-09-14T08:41:43.877Z,57.45
2022-09-14T08:44:13.309Z,55.98
2022-09-14T08:46:46.340Z,55.95
2022-09-14T08:49:27.595Z,54.29
2022-09-14T08:51:54.975Z,53.69
2022-09-14T08:54:21.505Z,52.65
2022-09-14T08:56:57.640Z,53.15
2022-09-14T08:59:38.559Z,53.21
2022-09-14T09:02:42.601Z,53.54
2022-09-14T09:05:15.114Z,52.36
2022-09-14T09:07:57.331Z,51.75
2022-09-14T09:10:27.046Z,51.77
2022-09-14T09:13:00.625Z,50.71
2022-09-14T09:15:32.511Z,51.96
2022-09-14T09:18:05.402Z,49.70
2022-09-14T09:20:47.653Z,50.50
2022-09-14T09:23:19.730Z,49.83
2022-09-14T09:25:46.077Z,50.04
2022-09-14T09:28:13.950Z,48.48
2022-09-14T09:30:41.357Z,47.52
2022-09-14T09:33:20.055Z,48.47
2022-09-14T09:35:46.597Z,46.33
2022-09-14T09:38:16.107Z,45.98
2022-09-14T09:40:49.202Z,45.99
2022-09-14T09:43:33.335Z,47.46
2022-09-14T09:46:07.541Z,47.03
2022-09-14T09:48:45.400Z,47.72
2022-09-14T09:51:27.020Z,47.20
2022-09-14T09:53:58.201Z,46.79
2022-09-14T09:56:31.418Z,46.90
2022-09-14T09:58:57.975Z,47.01
2022-09-14T10:01:29.230Z,46.48
2022-09-14T10:04:03.804Z,47.12
2022-09-14T10:06:30.630Z,47.17
2022-09-14T10:08:58.226Z,47.22
2022-09-14T10:11:37.653Z,48.00
2022-09-14T10:14:06.516Z,47.86
2022-09-14T10:16:42.050Z,47.90
2022-09-14T10:19:20.389Z,48.33
2022-09-14T10:22:17.196Z,49.01
2022-09-14T10:24:56.596Z,49.47
2022-09-14T10:27:46.110Z,50.05
2022-09-14T10:30:21.629Z,50.52
2022-09-14T10:33:00.281Z,50.68
2022-09-14T10:35:58.525Z,50.73
2022-09-14T10:38:32.421Z,50.58
2022-09-14T10:41:13.119Z,50.57
2022-09-14T10:44:01.085Z,50.46
2022-09-14T10:46:40.313Z,50.83
2022-09-14T10:49:29.237Z,50.39
2022-09-14T10:52:12.183Z,50.68
2022-09-14T10:54:58.017Z,51.27
2022-09-14T10:57:44.067Z,50.33
2022-09-14T11:00:20.201Z,49.77
2022-09-14T11:03:19.580Z,49.66
2022-09-14T11:05:55.489Z,48.89
2022-09-14T11:08:32.924Z,48.31
2022-09-14T11:11:14.323Z,47.77
2022-09-14T11:14:04.702Z,48.00
2022-09-14T11:17:09.019Z,47.70
2022-09-14T11:19:59.458Z,47.39
2022-09-14T11:22:41.679Z,46.54
2022-09-14T11:25:20.424Z,47.48
2022-09-14T11:27:52.495Z,48.39
2022-09-14T11:30:22.126Z,49.41
2022-09-14T11:33:16.700Z,48.84
2022-09-14T11:35:48.315Z,49.55
2022-09-14T11:38:28.435Z,50.29
2022-09-14T11:41:05.506Z,50.17
2022-09-14T11:43:46.945Z,50.68
2022-09-14T11:46:19.733Z,51.00
2022-09-14T11:49:14.525Z,51.42
2022-09-14T11:52:20.810Z,52.70
2022-09-14T11:54:48.725Z,53.53
2022-09-14T11:57:29.657Z,53.61
2022-09-14T11:59:58.857Z,53.35
2022-09-14T12:02:25.252Z,53.74
2022-09-14T12:05:10.418Z,54.26
2022-09-14T12:07:39.939Z,54.50
2022-09-14T12:10:15.460Z,54.59
2022-09-14T12:12:43.208Z,54.52
2022-09-14T12:15:24.818Z,52.88
2022-09-14T12:17:53.084Z,52.06
2022-09-14T12:20:37.773Z,51.37
2022-09-14T12:23:32.643Z,50.94
2022-09-14T12:26:11.158Z,50.53
2022-09-14T12:28:37.814Z,50.29
2022-09-14T12:31:04.307Z,50.80
2022-09-14T12:33:33.518Z,51.31
2022-09-14T12:36:00.632Z,52.24
2022-09-14T12:38:30.199Z,52.36
2022-09-14T12:40:58.382Z,52.21
2022-09-14T12:43:34.450Z,52.79
2022-09-14T12:46:07.989Z,53.02
2022-09-14T12:48:47.174Z,53.66
2022-09-14T12:51:29.093Z,53.48
2022-09-14T12:54:01.445Z,52.47
2022-09-14T12:56:51.021Z,52.53
2022-09-14T12:59:29.448Z,53.08
2022-09-14T13:02:23.351Z,52.12
2022-09-14T13:04:54.432Z,52.06
2022-09-14T13:07:23.080Z,50.39
2022-09-14T13:09:56.654Z,50.97
2022-09-14T13:12:34.634Z,49.08
2022-09-14T13:15:05.856Z,48.57
2022-09-14T13:17:32.262Z,48.29
2022-09-14T13:20:02.537Z,47.43
2022-09-14T13:22:31.832Z,47.95
2022-09-14T13:25:01.233Z,48.20
2022-09-14T13:27:37.104Z,48.41
2022-09-14T13:30:21.781Z,48.71
2022-09-14T13:32:50.880Z,48.51
2022-09-14T13:35:28.252Z,48.34
2022-09-14T13:37:55.259Z,48.08
2022-09-14T13:40:30.421Z,48.48
2022-09-14T13:42:58.808Z,48.02
2022-09-14T13:45:25.671Z,47.95
2022-09-14T13:47:53.617Z,48.48
2022-09-14T13:50:23.949Z,48.26
2022-09-14T13:53:01.773Z,47.24
2022-09-14T13:55:49.847Z,47.65
2022-09-14T13:58:19.247Z,47.49
2022-09-14T14:01:06.065Z,48.27
2022-09-14T14:03:39.029Z,47.58
2022-09-14T14:06:22.610Z,46.97
2022-09-14T14:09:05.774Z,46.81
2022-09-14T14:11:39.150Z,47.01
2022-09-14T14:14:30.888Z,47.42
2022-09-14T14:17:13.424Z,45.38
2022-09-14T14:19:40.916Z,45.91
2022-09-14T14:22:19.044Z,45.62
2022-09-14T14:25:12.207Z,45.02
2022-09-14T14:27:35.950Z,45.17
2022-09-14T14:30:13.151Z,45.60
2022-09-14T14:32:39.612Z,45.02
2022-09-14T14:35:19.959Z,45.77
2022-09-14T14:37:47.740Z,45.61
2022-09-14T14:40:16.193Z,45.96
2022-09-14T14:42:43.745Z,45.97
2022-09-14T14:45:17.775Z,45.97
2022-09-14T14:47:45.646Z,45.78
2022-09-14T14:50:17.806Z,46.16
2022-09-14T14:52:47.301Z,46.29
2022-09-14T14:55:14.639Z,46.56
2022-09-14T14:57:41.146Z,47.13
2022-09-14T15:00:17.459Z,46.18
2022-09-14T15:02:44.186Z,46.80
2022-09-14T15:05:11.741Z,45.24
2022-09-14T15:07:38.685Z,45.40
2022-09-14T15:10:06.263Z,45.03
2022-09-14T15:12:33.290Z,45.23
2022-09-14T15:15:00.399Z,45.47
2022-09-14T15:17:26.863Z,45.72
2022-09-14T15:19:53.510Z,46.12
2022-09-14T15:22:19.936Z,46.22
2022-09-14T15:24:46.321Z,46.23
2022-09-14T15:27:12.973Z,46.45
2022-09-14T15:29:39.449Z,46.79
2022-09-14T15:32:05.952Z,47.00
2022-09-14T15:34:32.436Z,47.39
2022-09-14T15:36:59.084Z,47.63
2022-09-14T15:39:28.539Z,48.16
2022-09-14T15:41:56.316Z,48.58
2022-09-14T15:44:23.196Z,48.50
2022-09-14T15:46:50.215Z,48.74
2022-09-14T15:49:20.630Z,47.48
2022-09-14T15:51:49.955Z,47.19
2022-09-14T15:54:17.723Z,46.72
2022-09-14T15:56:52.626Z,46.56
2022-09-14T15:59:20.663Z,46.55
2022-09-14T16:01:47.835Z,46.64
2022-09-14T16:04:15.015Z,46.95
2022-09-14T16:06:41.613Z,47.25
2022-09-14T16:09:10.652Z,47.97
2022-09-14T16:11:38.120Z,48.46
2022-09-14T16:14:05.981Z,48.49
2022-09-14T16:16:34.065Z,48.93
2022-09-14T16:19:08.678Z,48.74
2022-09-14T16:21:35.263Z,48.66
2022-09-14T16:24:07.181Z,48.81
2022-09-14T16:26:35.983Z,48.49
2022-09-14T16:29:02.970Z,49.03
2022-09-14T16:31:33.155Z,49.37
2022-09-14T16:34:08.342Z,49.57
2022-09-14T16:36:37.712Z,49.53
2022-09-14T16:39:09.368Z,50.23
2022-09-14T16:41:38.141Z,50.31
2022-09-14T16:44:06.019Z,50.74
2022-09-14T16:46:33.778Z,50.61
2022-09-14T16:49:00.457Z,51.28
2022-09-14T16:51:30.464Z,51.81
2022-09-14T16:53:59.271Z,51.67
2022-09-14T16:56:28.389Z,52.41
2022-09-14T16:58:56.238Z,53.01
2022-09-14T17:01:28.745Z,53.00
2022-09-14T17:03:57.785Z,53.63
2022-09-14T17:06:27.007Z,53.83
2022-09-14T17:08:55.294Z,54.54
2022-09-14T17:11:22.993Z,54.49
2022-09-14T17:13:49.774Z,54.76
2022-09-14T17:16:18.750Z,54.94
2022-09-14T17:18:48.744Z,55.49
2022-09-14T17:21:18.414Z,55.88
2022-09-14T17:23:45.210Z,55.53
2022-09-14T17:26:13.508Z,56.25
2022-09-14T17:28:40.708Z,56.52
2022-09-14T17:31:08.538Z,56.92
2022-09-14T17:33:35.749Z,57.47
2022-09-14T17:36:04.753Z,57.86
2022-09-14T17:38:36.669Z,58.37
2022-09-14T17:41:05.103Z,58.41
2022-09-14T17:43:33.296Z,58.65
2022-09-14T17:45:59.829Z,59.02
2022-09-14T17:48:27.948Z,59.37
2022-09-14T17:50:54.865Z,59.71
2022-09-14T17:53:21.344Z,59.93
2022-09-14T17:55:48.045Z,60.29
2022-09-14T17:58:19.498Z,60.78
2022-09-14T18:00:46.352Z,61.06
2022-09-14T18:03:13.142Z,61.09
2022-09-14T18:05:39.593Z,61.60
2022-09-14T18:08:06.346Z,62.43
2022-09-14T18:10:35.757Z,62.48
2022-09-14T18:13:02.354Z,62.42
2022-09-14T18:15:30.984Z,63.17
2022-09-14T18:17:57.729Z,62.89
2022-09-14T18:20:24.108Z,63.38
2022-09-14T18:22:50.741Z,63.53
2022-09-14T18:25:17.184Z,63.73
2022-09-14T18:27:43.517Z,64.11
2022-09-14T18:30:10.786Z,64.43
2022-09-14T18:32:37.310Z,64.81
2022-09-14T18:35:03.903Z,65.02
2022-09-14T18:37:30.854Z,65.33
2022-09-14T18:39:57.399Z,65.74
2022-09-14T18:42:23.991Z,65.46
2022-09-14T18:44:53.898Z,66.29
2022-09-14T18:47:21.696Z,66.61
2022-09-14T18:49:49.946Z,66.94
2022-09-14T18:52:18.094Z,67.20
2022-09-14T18:54:44.572Z,67.42
2022-09-14T18:57:11.386Z,67.90
2022-09-14T18:59:37.755Z,67.90
2022-09-14T19:02:04.231Z,68.09
2022-09-14T19:04:30.751Z,68.22
2022-09-14T19:06:57.109Z,68.59
2022-09-14T19:09:23.608Z,68.42
2022-09-14T19:11:50.004Z,68.71
2022-09-14T19:14:17.435Z,68.94
2022-09-14T19:16:43.959Z,68.89
2022-09-14T19:19:14.446Z,69.70
2022-09-14T19:21:41.139Z,69.47
2022-09-14T19:24:11.568Z,69.96
2022-09-14T19:26:45.688Z,69.95
2022-09-14T19:29:17.865Z,70.13
2022-09-14T19:31:44.376Z,70.43
2022-09-14T19:34:11.475Z,70.90
2022-09-14T19:36:37.916Z,70.73
2022-09-14T19:39:04.746Z,71.35
2022-09-14T19:41:33.129Z,71.70
2022-09-14T19:44:00.531Z,72.20
2022-09-14T19:46:28.799Z,72.77
2022-09-14T19:48:55.560Z,73.16
2022-09-14T19:51:25.257Z,73.47
2022-09-14T19:53:54.290Z,73.57
2022-09-14T19:56:25.315Z,74.33
2022-09-14T19:58:53.703Z,74.46
2022-09-14T20:01:22.426Z,75.22
2022-09-14T20:03:49.941Z,75.38
2022-09-14T20:06:23.505Z,76.41
2022-09-14T20:08:56.595Z,77.71
2022-09-14T20:11:25.257Z,77.83
2022-09-14T20:13:56.949Z,78.44
2022-09-14T20:16:27.831Z,78.47
2022-09-14T20:18:55.368Z,78.54
2022-09-14T20:21:24.216Z,79.24
2022-09-14T20:24:15.207Z,80.04
2022-09-14T20:26:42.792Z,80.14
2022-09-14T20:29:09.206Z,80.96
2022-09-14T20:31:35.885Z,81.26
2022-09-14T20:34:02.368Z,81.88
2022-09-14T20:36:28.750Z,82.10
2022-09-14T20:38:56.794Z,82.01
2022-09-14T20:41:25.245Z,82.15
2022-09-14T20:43:52.908Z,81.65
2022-09-14T20:46:22.819Z,81.88
2022-09-14T20:48:50.326Z,82.05
2022-09-14T20:51:20.018Z,82.66
2022-09-14T20:53:47.329Z,82.35
2022-09-14T20:56:16.765Z,82.96
2022-09-14T20:58:44.111Z,82.88
2022-09-14T21:01:18.920Z,83.14
2022-09-14T21:03:46.974Z,83.23
2022-09-14T21:06:16.466Z,83.10
2022-09-14T21:08:43.253Z,83.06
2022-09-14T21:11:13.557Z,83.28
2022-09-14T21:13:39.887Z,81.41
2022-09-14T21:16:18.760Z,82.73
2022-09-14T21:18:47.022Z,82.88
2022-09-14T21:21:15.971Z,83.34
2022-09-14T21:23:43.256Z,83.38
2022-09-14T21:26:10.897Z,83.40
2022-09-14T21:28:38.588Z,83.08
2022-09-14T21:31:06.954Z,83.34
2022-09-14T21:33:35.440Z,82.74
2022-09-14T21:36:07.916Z,83.13
2022-09-14T21:38:35.166Z,83.32
2022-09-14T21:41:02.518Z,83.72
2022-09-14T21:43:29.356Z,83.81
2022-09-14T21:45:58.372Z,83.79
2022-09-14T21:48:25.325Z,83.39
2022-09-14T21:51:17.189Z,83.80
2022-09-14T21:53:51.566Z,83.28
2022-09-14T21:56:18.589Z,83.17
2022-09-14T21:58:49.154Z,83.30
2022-09-14T22:01:16.422Z,82.52
2022-09-14T22:03:43.348Z,82.02
2022-09-14T22:06:12.574Z,81.90
2022-09-14T22:08:39.929Z,81.71
2022-09-14T22:11:08.922Z,82.01
2022-09-14T22:13:35.434Z,81.66
2022-09-14T22:16:08.062Z,82.13
2022-09-14T22:18:36.947Z,81.17
2022-09-14T22:21:04.846Z,81.10
2022-09-14T22:23:32.414Z,81.07
2022-09-14T22:25:59.356Z,80.83
2022-09-14T22:28:25.826Z,80.77
2022-09-14T22:30:54.212Z,81.37
2022-09-14T22:33:22.828Z,81.24
2022-09-14T22:35:57.693Z,81.59
2022-09-14T22:38:26.044Z,80.70
2022-09-14T22:41:00.818Z,81.13
2022-09-14T22:43:28.175Z,80.59
2022-09-14T22:45:55.229Z,81.09
2022-09-14T22:48:23.384Z,81.23
2022-09-14T22:50:51.819Z,81.17
2022-09-14T22:53:18.895Z,81.03
2022-09-14T22:55:45.572Z,81.00
2022-09-14T22:58:14.320Z,80.75
2022-09-14T23:00:41.653Z,80.29
2022-09-14T23:03:09.609Z,80.11
2022-09-14T23:05:37.848Z,79.65
2022-09-14T23:08:05.843Z,79.34
2022-09-14T23:10:35.858Z,78.75
2022-09-14T23:13:02.227Z,78.21
2022-09-14T23:15:28.695Z,77.59
2022-09-14T23:17:55.076Z,77.32
2022-09-14T23:20:21.484Z,76.61
2022-09-14T23:22:47.840Z,76.06
2022-09-14T23:25:14.403Z,75.92
2022-09-14T23:27:40.824Z,75.33
2022-09-14T23:30:07.752Z,74.98
2022-09-14T23:32:34.182Z,74.83
2022-09-14T23:35:01.284Z,74.10
2022-09-14T23:37:27.793Z,74.21
2022-09-14T23:39:54.201Z,73.80
2022-09-14T23:42:20.538Z,73.85
2022-09-14T23:44:46.944Z,73.43
2022-09-14T23:47:13.372Z,73.31
2022-09-14T23:49:39.851Z,73.21
2022-09-14T23:52:06.362Z,72.97
2022-09-14T23:54:32.730Z,72.98
2022-09-14T23:56:59.315Z,72.86
2022-09-14T23:59:25.686Z,72.81
